Loleta, California
Current Conditions -  °F | °C
As of 9:50 PM on Wednesday 22 Oct 2014 (Local Time) from KFOT Reporting Station
Overcast Overcast  
Wind Chill: 59°   Ceiling: 2700
Heat Index: 59°   Visibility: 4mi
Dew Point: 57°   Wind: 13mph
Humidity: 94%   Direction: 120°ESE
Pressure: 29.99"   Gusts: NA
Location:  40.64°N, 124.23°W
Report Text: KFOT 230450Z AUTO 12011KT 4SM BKN027 OVC032 15/14 A2999 RMK AO1 P0010
Loading
Personal Weather Stations






























Interactive Weather Map
Tropical Storm Tracking
New forecast layout! Learn more

10-Day Weather Forecast

Advertisements
Track Severe Weather on mobile